createdAt,value
2022-12-11T00:00:30.572Z,25.48
2022-12-11T00:01:09.615Z,29.25
2022-12-11T00:01:41.049Z,27.15
2022-12-11T00:02:12.540Z,28.35
2022-12-11T00:02:44.320Z,28.38
2022-12-11T00:03:19.256Z,28.83
2022-12-11T00:03:50.983Z,27.58
2022-12-11T00:04:23.199Z,27.10
2022-12-11T00:04:54.797Z,26.97
2022-12-11T00:05:26.162Z,27.88
2022-12-11T00:05:57.544Z,27.95
2022-12-11T00:06:28.911Z,27.25
2022-12-11T00:07:00.348Z,28.05
2022-12-11T00:07:31.759Z,27.27
2022-12-11T00:08:03.504Z,28.95
2022-12-11T00:08:35.150Z,25.40
2022-12-11T00:09:06.535Z,30.02
2022-12-11T00:09:38.113Z,26.98
2022-12-11T00:10:09.696Z,26.17
2022-12-11T00:10:48.906Z,28.42
2022-12-11T00:11:21.378Z,26.13
2022-12-11T00:11:53.033Z,26.92
2022-12-11T00:12:24.612Z,27.58
2022-12-11T00:12:56.001Z,27.13
2022-12-11T00:13:27.480Z,26.40
2022-12-11T00:13:59.230Z,27.40
2022-12-11T00:14:31.837Z,27.95
2022-12-11T00:15:03.458Z,27.88
2022-12-11T00:15:34.799Z,26.40
2022-12-11T00:16:06.838Z,27.48
2022-12-11T00:16:38.333Z,27.27
2022-12-11T00:17:10.158Z,26.75
2022-12-11T00:17:41.694Z,29.67
2022-12-11T00:18:14.232Z,26.27
2022-12-11T00:18:45.677Z,28.00
2022-12-11T00:19:17.178Z,26.85
2022-12-11T00:19:48.678Z,27.83
2022-12-11T00:20:20.065Z,26.52
2022-12-11T00:20:51.459Z,30.07
2022-12-11T00:21:22.814Z,29.00
2022-12-11T00:21:54.274Z,25.52
2022-12-11T00:22:25.678Z,27.58
2022-12-11T00:22:57.121Z,28.17
2022-12-11T00:23:29.077Z,26.80
2022-12-11T00:24:00.460Z,27.88
2022-12-11T00:24:32.000Z,27.83
2022-12-11T00:25:04.285Z,27.63
2022-12-11T00:25:35.658Z,26.55
2022-12-11T00:26:09.571Z,27.33
2022-12-11T00:26:41.265Z,28.25
2022-12-11T00:27:12.745Z,25.05
2022-12-11T00:27:46.771Z,26.98
2022-12-11T00:28:21.239Z,29.00
2022-12-11T00:28:55.587Z,27.45
2022-12-11T00:29:27.104Z,27.48
2022-12-11T00:29:58.535Z,26.83
2022-12-11T00:30:29.994Z,27.52
2022-12-11T00:31:09.957Z,26.25
2022-12-11T00:31:42.398Z,26.53
2022-12-11T00:32:13.819Z,26.50
2022-12-11T00:32:45.243Z,27.75
2022-12-11T00:33:17.182Z,27.40
2022-12-11T00:33:49.157Z,26.00
2022-12-11T00:34:20.646Z,26.08
2022-12-11T00:34:52.014Z,26.88
2022-12-11T00:35:23.397Z,26.10
2022-12-11T00:35:54.804Z,28.48
2022-12-11T00:36:27.423Z,27.20
2022-12-11T00:36:59.129Z,27.53
2022-12-11T00:37:30.698Z,28.92
2022-12-11T00:38:02.064Z,27.60
2022-12-11T00:38:33.564Z,27.52
2022-12-11T00:39:05.995Z,28.20
2022-12-11T00:39:39.882Z,27.55
2022-12-11T00:40:11.562Z,27.95
2022-12-11T00:40:44.067Z,26.98
2022-12-11T00:41:16.703Z,27.20
2022-12-11T00:41:48.124Z,28.15
2022-12-11T00:42:19.502Z,27.93
2022-12-11T00:42:50.912Z,28.88
2022-12-11T00:43:22.359Z,28.00
2022-12-11T00:43:53.797Z,27.88
2022-12-11T00:44:25.407Z,27.92
2022-12-11T00:44:56.832Z,27.63
2022-12-11T00:45:28.305Z,27.17
2022-12-11T00:45:59.886Z,29.20
2022-12-11T00:46:31.796Z,27.73
2022-12-11T00:47:03.982Z,26.50
2022-12-11T00:47:35.404Z,27.37
2022-12-11T00:48:07.211Z,26.70
2022-12-11T00:48:38.776Z,29.17
2022-12-11T00:49:10.223Z,28.48
2022-12-11T00:49:45.178Z,28.02
2022-12-11T00:50:20.951Z,27.55
2022-12-11T00:50:52.407Z,28.40
2022-12-11T00:51:23.860Z,26.77
2022-12-11T00:51:55.436Z,28.60
2022-12-11T00:52:26.800Z,25.35
2022-12-11T00:52:58.198Z,27.07
2022-12-11T00:53:29.627Z,28.35
2022-12-11T00:54:01.043Z,27.70
2022-12-11T00:54:34.318Z,27.38
2022-12-11T00:55:06.063Z,27.58
2022-12-11T00:55:41.689Z,27.95
2022-12-11T00:56:21.953Z,25.63
2022-12-11T00:56:55.784Z,27.58
2022-12-11T00:57:27.192Z,29.40
2022-12-11T00:57:58.756Z,28.10
2022-12-11T00:58:30.113Z,27.97
2022-12-11T00:59:01.556Z,28.20
2022-12-11T00:59:32.957Z,28.13
2022-12-11T01:00:08.797Z,28.63
2022-12-11T01:00:40.939Z,27.80
2022-12-11T01:01:15.940Z,28.05
2022-12-11T01:01:47.432Z,26.42
2022-12-11T01:02:18.930Z,28.50
2022-12-11T01:02:50.691Z,26.30
2022-12-11T01:03:22.217Z,27.30
2022-12-11T01:03:53.885Z,26.50
2022-12-11T01:04:25.303Z,27.17
2022-12-11T01:04:56.773Z,30.48
2022-12-11T01:05:28.184Z,28.40
2022-12-11T01:05:59.590Z,27.92
2022-12-11T01:06:31.060Z,25.65
2022-12-11T01:07:02.522Z,26.60
2022-12-11T01:07:34.088Z,28.33
2022-12-11T01:08:05.759Z,27.85
2022-12-11T01:08:38.863Z,27.42
2022-12-11T01:09:28.807Z,28.07
2022-12-11T01:10:18.953Z,26.25
2022-12-11T01:10:50.386Z,24.75
2022-12-11T01:11:21.840Z,26.30
2022-12-11T01:11:53.737Z,29.75
2022-12-11T01:12:26.824Z,26.83
2022-12-11T01:13:04.222Z,26.83
2022-12-11T01:13:35.991Z,27.25
2022-12-11T01:14:08.123Z,30.35
2022-12-11T01:14:39.547Z,27.73
2022-12-11T01:15:12.181Z,27.40
2022-12-11T01:15:45.548Z,27.50
2022-12-11T01:16:17.008Z,28.70
2022-12-11T01:16:48.454Z,29.00
2022-12-11T01:17:19.975Z,28.65
2022-12-11T01:17:52.068Z,28.38
2022-12-11T01:18:25.507Z,28.27
2022-12-11T01:18:57.657Z,28.00
2022-12-11T01:19:29.088Z,28.85
2022-12-11T01:20:00.478Z,27.95
2022-12-11T01:20:32.334Z,29.17
2022-12-11T01:21:11.966Z,26.48
2022-12-11T01:21:43.435Z,28.45
2022-12-11T01:22:15.300Z,29.65
2022-12-11T01:22:46.903Z,28.67
2022-12-11T01:23:18.305Z,29.33
2022-12-11T01:23:51.068Z,28.65
2022-12-11T01:24:22.585Z,28.25
2022-12-11T01:24:54.128Z,30.75
2022-12-11T01:25:27.083Z,29.38
2022-12-11T01:26:04.852Z,29.53
2022-12-11T01:26:36.307Z,29.60
2022-12-11T01:27:08.575Z,29.80
2022-12-11T01:27:40.131Z,30.17
2022-12-11T01:28:11.718Z,28.80
2022-12-11T01:28:44.032Z,28.60
2022-12-11T01:29:15.469Z,28.98
2022-12-11T01:29:47.049Z,30.58
2022-12-11T01:30:19.835Z,29.20
2022-12-11T01:30:51.339Z,28.10
2022-12-11T01:31:22.787Z,29.63
2022-12-11T01:31:54.161Z,30.08
2022-12-11T01:32:25.606Z,31.02
2022-12-11T01:32:57.022Z,29.67
2022-12-11T01:33:28.715Z,30.73
2022-12-11T01:34:00.294Z,29.58
2022-12-11T01:35:22.178Z,29.52
2022-12-11T01:35:54.078Z,28.88
2022-12-11T01:36:25.486Z,30.02
2022-12-11T01:36:57.064Z,30.57
2022-12-11T01:37:28.618Z,29.67
2022-12-11T01:38:00.317Z,30.08
2022-12-11T01:38:31.896Z,30.48
2022-12-11T01:39:03.694Z,33.15
2022-12-11T01:39:36.263Z,30.05
2022-12-11T01:40:09.212Z,29.05
2022-12-11T01:40:49.660Z,30.25
2022-12-11T01:41:21.849Z,28.92
2022-12-11T01:42:01.476Z,28.30
2022-12-11T01:42:33.651Z,28.10
2022-12-11T01:43:05.139Z,29.67
2022-12-11T01:44:00.159Z,29.75
2022-12-11T01:44:31.461Z,28.35
2022-12-11T01:45:21.581Z,29.25
2022-12-11T01:45:53.003Z,28.35
2022-12-11T01:46:25.192Z,28.73
2022-12-11T01:46:56.635Z,30.40
2022-12-11T01:47:28.096Z,30.33
2022-12-11T01:48:05.476Z,29.95
2022-12-11T01:48:42.064Z,30.30
2022-12-11T01:49:17.155Z,27.90
2022-12-11T01:49:48.608Z,28.23
2022-12-11T01:50:20.369Z,29.40
2022-12-11T01:51:04.793Z,30.00
2022-12-11T01:51:41.739Z,28.92
2022-12-11T01:52:21.272Z,28.63
2022-12-11T01:52:53.309Z,27.80
2022-12-11T01:53:32.076Z,30.30
2022-12-11T01:54:09.051Z,30.17
2022-12-11T01:54:42.010Z,27.17
2022-12-11T01:55:14.483Z,28.50
2022-12-11T01:55:47.748Z,30.08
2022-12-11T01:56:19.660Z,30.35
2022-12-11T01:56:55.087Z,29.58
2022-12-11T01:57:26.557Z,29.45
2022-12-11T01:57:58.288Z,30.52
2022-12-11T01:58:34.448Z,28.67
2022-12-11T01:59:08.071Z,28.10
2022-12-11T01:59:43.330Z,28.95
2022-12-11T02:00:15.359Z,30.50
2022-12-11T02:00:46.969Z,30.17
2022-12-11T02:01:29.349Z,31.55
2022-12-11T02:02:08.495Z,31.10
2022-12-11T02:02:40.165Z,28.60
2022-12-11T02:03:11.672Z,29.05
2022-12-11T02:03:43.026Z,28.92
2022-12-11T02:04:15.830Z,29.70
2022-12-11T02:04:48.400Z,31.00
2022-12-11T02:05:19.919Z,30.55
2022-12-11T02:05:51.340Z,29.73
2022-12-11T02:06:40.542Z,31.00
2022-12-11T02:07:12.080Z,28.60
2022-12-11T02:07:50.549Z,29.88
2022-12-11T02:08:22.064Z,28.67
2022-12-11T02:08:53.527Z,30.42
2022-12-11T02:09:33.378Z,29.42
2022-12-11T02:10:05.562Z,31.70
2022-12-11T02:10:48.549Z,29.20
2022-12-11T02:11:25.787Z,29.05
2022-12-11T02:12:29.002Z,28.00
2022-12-11T02:13:17.610Z,26.50
2022-12-11T02:14:04.150Z,28.95
2022-12-11T02:14:44.167Z,29.95
2022-12-11T02:15:25.691Z,29.30
2022-12-11T02:16:10.153Z,26.45
2022-12-11T02:16:53.471Z,27.75
2022-12-11T02:17:40.780Z,27.25
2022-12-11T02:18:29.352Z,27.65
2022-12-11T02:19:08.083Z,25.48
2022-12-11T02:19:45.568Z,27.63
2022-12-11T02:20:43.772Z,27.17
2022-12-11T02:21:23.323Z,27.80
2022-12-11T02:21:57.196Z,27.75
2022-12-11T02:22:53.891Z,29.25
2022-12-11T02:23:38.876Z,26.00
2022-12-11T02:24:48.994Z,26.92
2022-12-11T02:25:35.440Z,25.17
2022-12-11T02:26:34.095Z,26.65
2022-12-11T02:27:20.647Z,26.48
2022-12-11T02:27:58.841Z,26.27
2022-12-11T02:28:33.010Z,24.83
2022-12-11T02:29:12.116Z,26.48
2022-12-11T02:29:53.919Z,28.98
2022-12-11T02:30:25.473Z,27.02
2022-12-11T02:31:05.684Z,29.38
2022-12-11T02:31:43.534Z,26.80
2022-12-11T02:32:21.702Z,26.95
2022-12-11T02:32:56.925Z,27.88
2022-12-11T02:33:43.838Z,26.48
2022-12-11T02:34:23.125Z,28.30
2022-12-11T02:35:09.606Z,29.08
2022-12-11T02:35:44.076Z,27.05
2022-12-11T02:36:18.106Z,27.17
2022-12-11T02:36:54.286Z,29.00
2022-12-11T02:37:29.381Z,29.55
2022-12-11T02:38:08.150Z,29.88
2022-12-11T02:38:43.404Z,28.33
2022-12-11T02:39:16.729Z,29.13
2022-12-11T02:39:50.677Z,28.88
2022-12-11T02:40:26.405Z,28.93
2022-12-11T02:41:00.580Z,27.25
2022-12-11T02:41:33.704Z,29.05
2022-12-11T02:42:08.004Z,30.40
2022-12-11T02:42:42.461Z,29.27
2022-12-11T02:43:16.313Z,28.73
2022-12-11T02:43:50.633Z,29.85
2022-12-11T02:44:29.488Z,28.95
2022-12-11T02:45:03.291Z,29.75
2022-12-11T02:45:36.160Z,28.00
2022-12-11T02:46:08.135Z,28.00
2022-12-11T02:46:41.088Z,27.63
2022-12-11T02:47:15.181Z,28.50
2022-12-11T02:47:47.839Z,28.38
2022-12-11T02:48:21.121Z,30.15
2022-12-11T02:48:54.242Z,27.92
2022-12-11T02:49:27.746Z,28.45
2022-12-11T02:50:02.685Z,29.77
2022-12-11T02:50:38.429Z,27.35
2022-12-11T02:51:12.464Z,29.00
2022-12-11T02:51:44.325Z,28.87
2022-12-11T02:52:21.111Z,27.45
2022-12-11T02:52:55.946Z,28.42
2022-12-11T02:53:31.090Z,28.73
2022-12-11T02:54:04.738Z,29.75
2022-12-11T02:54:39.630Z,29.30
2022-12-11T02:55:14.109Z,27.45
2022-12-11T02:55:45.797Z,28.85
2022-12-11T02:56:24.637Z,29.60
2022-12-11T02:57:08.529Z,29.67
2022-12-11T02:57:45.524Z,28.10
2022-12-11T02:58:24.257Z,29.17
2022-12-11T02:59:00.354Z,27.40
2022-12-11T02:59:39.303Z,28.13
2022-12-11T03:00:11.755Z,27.05
2022-12-11T03:00:45.091Z,29.33
2022-12-11T03:01:16.894Z,29.73
2022-12-11T03:01:48.458Z,28.10
2022-12-11T03:02:20.285Z,27.30
2022-12-11T03:02:51.820Z,27.83
2022-12-11T03:03:23.607Z,29.17
2022-12-11T03:03:56.224Z,28.42
2022-12-11T03:04:29.395Z,27.25
2022-12-11T03:05:00.787Z,29.40
2022-12-11T03:05:32.727Z,26.92
2022-12-11T03:06:04.313Z,30.25
2022-12-11T03:06:41.623Z,30.83
2022-12-11T03:07:23.298Z,28.35
2022-12-11T03:07:54.931Z,29.15
2022-12-11T03:08:26.476Z,28.60
2022-12-11T03:08:57.903Z,30.57
2022-12-11T03:09:29.425Z,29.48
2022-12-11T03:10:01.100Z,28.55
2022-12-11T03:10:33.037Z,30.27
2022-12-11T03:11:04.754Z,31.60
2022-12-11T03:11:36.188Z,29.38
2022-12-11T03:12:15.161Z,29.05
2022-12-11T03:12:53.675Z,28.23
2022-12-11T03:13:25.583Z,31.45
2022-12-11T03:13:57.400Z,29.30
2022-12-11T03:14:28.867Z,29.57
2022-12-11T03:15:03.272Z,29.70
2022-12-11T03:15:57.529Z,29.63
2022-12-11T03:16:35.672Z,27.65
2022-12-11T03:17:07.025Z,29.23
2022-12-11T03:18:01.226Z,29.10
2022-12-11T03:18:52.415Z,27.67
2022-12-11T03:19:52.223Z,26.80
2022-12-11T03:20:37.496Z,25.42
2022-12-11T03:21:28.187Z,25.83
2022-12-11T03:22:12.700Z,27.23
2022-12-11T03:22:50.060Z,27.55
2022-12-11T03:23:46.065Z,26.65
2022-12-11T03:24:26.316Z,26.90
2022-12-11T03:25:04.860Z,27.88
2022-12-11T03:25:44.472Z,26.75
2022-12-11T03:26:19.464Z,26.30
2022-12-11T03:27:00.172Z,26.58
2022-12-11T03:27:42.343Z,27.95
2022-12-11T03:28:19.375Z,26.38
2022-12-11T03:29:09.357Z,26.83
2022-12-11T03:29:51.370Z,25.02
2022-12-11T03:30:25.039Z,25.40
2022-12-11T03:30:57.940Z,27.23
2022-12-11T03:31:40.862Z,27.42
2022-12-11T03:32:19.751Z,26.10
2022-12-11T03:33:00.498Z,26.13
2022-12-11T03:33:37.385Z,27.35
2022-12-11T03:34:16.924Z,26.77
2022-12-11T03:34:58.412Z,26.15
2022-12-11T03:35:35.377Z,26.07
2022-12-11T03:36:11.583Z,27.63
2022-12-11T03:36:44.380Z,28.27
2022-12-11T03:37:16.636Z,27.67
2022-12-11T03:37:49.695Z,27.73
2022-12-11T03:38:27.978Z,27.77
2022-12-11T03:39:09.187Z,26.95
2022-12-11T03:39:47.181Z,27.60
2022-12-11T03:40:22.864Z,27.48
2022-12-11T03:40:59.205Z,27.20
2022-12-11T03:41:34.205Z,27.57
2022-12-11T03:42:08.429Z,28.33
2022-12-11T03:42:42.665Z,28.90
2022-12-11T03:43:16.151Z,28.33
2022-12-11T03:43:51.897Z,30.13
2022-12-11T03:44:24.851Z,27.55
2022-12-11T03:44:58.916Z,27.98
2022-12-11T03:45:30.530Z,26.15
2022-12-11T03:46:02.697Z,27.75
2022-12-11T03:46:40.035Z,28.00
2022-12-11T03:47:14.703Z,27.13
2022-12-11T03:47:47.571Z,27.90
2022-12-11T03:48:20.867Z,26.52
2022-12-11T03:48:55.584Z,25.30
2022-12-11T03:49:31.923Z,28.75
2022-12-11T03:50:07.399Z,27.65
2022-12-11T03:50:41.638Z,28.88
2022-12-11T03:51:14.830Z,27.80
2022-12-11T03:51:48.619Z,29.42
2022-12-11T03:52:20.934Z,27.95
2022-12-11T03:52:53.766Z,27.60
2022-12-11T03:53:26.542Z,26.30
2022-12-11T03:53:59.761Z,27.77
2022-12-11T03:54:31.664Z,28.08
2022-12-11T03:55:05.038Z,27.80
2022-12-11T03:55:38.202Z,27.10
2022-12-11T03:56:11.922Z,28.45
2022-12-11T03:56:45.988Z,27.20
2022-12-11T03:57:22.566Z,29.20
2022-12-11T03:57:54.090Z,27.70
2022-12-11T03:58:25.642Z,28.20
2022-12-11T03:58:57.355Z,28.60
2022-12-11T03:59:28.809Z,26.55
2022-12-11T04:00:00.583Z,28.92
2022-12-11T04:00:32.380Z,29.50
2022-12-11T04:01:04.145Z,27.35
2022-12-11T04:01:35.784Z,28.45
2022-12-11T04:02:11.100Z,28.70
2022-12-11T04:02:43.502Z,27.92
2022-12-11T04:03:15.829Z,27.77
2022-12-11T04:03:47.288Z,27.70
2022-12-11T04:04:19.067Z,26.58
2022-12-11T04:04:51.400Z,28.50
2022-12-11T04:05:22.756Z,27.77
2022-12-11T04:05:55.747Z,27.38
2022-12-11T04:06:27.120Z,25.52
2022-12-11T04:06:58.760Z,26.88
2022-12-11T04:07:31.203Z,26.38
2022-12-11T04:08:02.885Z,27.88
2022-12-11T04:08:34.362Z,28.63
2022-12-11T04:09:05.753Z,27.00
2022-12-11T04:09:37.270Z,26.98
2022-12-11T04:10:08.762Z,26.45
2022-12-11T04:10:41.250Z,28.58
2022-12-11T04:11:31.195Z,28.23
2022-12-11T04:12:02.760Z,26.20
2022-12-11T04:12:34.120Z,24.73
2022-12-11T04:13:05.714Z,26.25
2022-12-11T04:13:38.032Z,26.92
2022-12-11T04:14:31.887Z,26.58
2022-12-11T04:15:03.449Z,24.93
2022-12-11T04:15:34.992Z,25.20
2022-12-11T04:16:07.083Z,26.17
2022-12-11T04:16:38.614Z,27.05
2022-12-11T04:17:10.164Z,27.48
2022-12-11T04:18:00.175Z,25.48
2022-12-11T04:18:50.094Z,25.65
2022-12-11T04:19:42.392Z,24.95
2022-12-11T04:20:32.707Z,24.52
2022-12-11T04:21:22.595Z,23.95
2022-12-11T04:22:12.859Z,22.80
2022-12-11T04:23:02.914Z,24.92
2022-12-11T04:23:53.220Z,24.17
2022-12-11T04:24:24.783Z,23.67
2022-12-11T04:24:56.200Z,25.30
2022-12-11T04:25:27.632Z,24.00
2022-12-11T04:26:16.457Z,25.75
2022-12-11T04:26:47.852Z,24.13
2022-12-11T04:27:39.559Z,25.20
2022-12-11T04:28:11.037Z,23.95
2022-12-11T04:28:43.595Z,25.80
2022-12-11T04:29:15.197Z,25.25
2022-12-11T04:29:46.678Z,24.88
2022-12-11T04:30:21.200Z,24.63
2022-12-11T04:30:52.749Z,25.77
2022-12-11T04:31:24.274Z,25.65
2022-12-11T04:31:55.730Z,27.33
2022-12-11T04:32:27.127Z,25.83
2022-12-11T04:32:58.524Z,26.30
2022-12-11T04:33:30.044Z,25.80
2022-12-11T04:34:01.532Z,25.43
2022-12-11T04:34:32.875Z,25.85
2022-12-11T04:35:06.548Z,26.25
2022-12-11T04:35:38.094Z,24.58
2022-12-11T04:36:11.484Z,26.02
2022-12-11T04:36:43.551Z,26.02
2022-12-11T04:37:15.145Z,25.58
2022-12-11T04:37:46.654Z,26.17
2022-12-11T04:38:18.048Z,26.65
2022-12-11T04:38:49.471Z,27.33
2022-12-11T04:39:20.867Z,25.20
2022-12-11T04:39:52.256Z,25.60
2022-12-11T04:40:23.712Z,25.20
2022-12-11T04:41:04.356Z,26.60
2022-12-11T04:41:37.151Z,25.58
2022-12-11T04:42:08.601Z,23.50
2022-12-11T04:42:40.085Z,24.73
2022-12-11T04:43:11.492Z,25.40
2022-12-11T04:43:45.227Z,25.55
2022-12-11T04:44:16.866Z,24.88
2022-12-11T04:44:48.467Z,24.63
2022-12-11T04:45:19.892Z,23.25
2022-12-11T04:45:51.334Z,26.15
2022-12-11T04:46:24.510Z,25.15
2022-12-11T04:46:55.958Z,27.15
2022-12-11T04:47:27.584Z,24.77
2022-12-11T04:47:59.541Z,25.30
2022-12-11T04:48:31.028Z,26.60
2022-12-11T04:49:02.651Z,25.92
2022-12-11T04:49:33.993Z,24.40
2022-12-11T04:50:08.016Z,24.63
2022-12-11T04:50:39.347Z,24.30
2022-12-11T04:51:11.522Z,25.02
2022-12-11T04:51:43.682Z,24.98
2022-12-11T04:52:15.122Z,25.20
2022-12-11T04:52:46.520Z,24.25
2022-12-11T04:53:17.930Z,25.20
2022-12-11T04:53:49.343Z,25.75
2022-12-11T04:54:20.683Z,24.95
2022-12-11T04:54:52.133Z,23.13
2022-12-11T04:55:23.960Z,23.67
2022-12-11T04:55:55.723Z,24.67
2022-12-11T04:56:27.376Z,25.35
2022-12-11T04:56:58.820Z,24.73
2022-12-11T04:57:30.198Z,25.13
2022-12-11T04:58:01.583Z,23.83
2022-12-11T04:58:33.192Z,23.95
2022-12-11T04:59:04.540Z,24.80
2022-12-11T04:59:37.108Z,23.90
2022-12-11T05:00:11.219Z,23.08
2022-12-11T05:00:42.780Z,22.83
2022-12-11T05:01:17.622Z,23.90
2022-12-11T05:01:49.139Z,23.20
2022-12-11T05:02:20.610Z,22.92
2022-12-11T05:02:52.103Z,25.67
2022-12-11T05:03:23.648Z,23.40
2022-12-11T05:03:55.010Z,25.63
2022-12-11T05:04:31.879Z,24.58
2022-12-11T05:05:09.901Z,22.67
2022-12-11T05:05:47.912Z,21.98
2022-12-11T05:06:19.312Z,23.67
2022-12-11T05:06:51.076Z,23.52
2022-12-11T05:07:22.503Z,21.95
2022-12-11T05:07:54.130Z,24.05
2022-12-11T05:08:25.664Z,23.25
2022-12-11T05:08:58.798Z,21.75
2022-12-11T05:09:30.423Z,20.80
2022-12-11T05:10:02.075Z,22.48
2022-12-11T05:10:33.485Z,22.70
2022-12-11T05:11:07.714Z,21.83
2022-12-11T05:11:39.575Z,22.80
2022-12-11T05:12:11.126Z,23.02
2022-12-11T05:12:42.568Z,23.88
2022-12-11T05:13:13.875Z,23.08
2022-12-11T05:13:45.848Z,22.17
2022-12-11T05:14:17.375Z,22.45
2022-12-11T05:14:53.110Z,23.25
2022-12-11T05:15:24.498Z,21.13
2022-12-11T05:15:56.475Z,24.38
2022-12-11T05:16:27.914Z,23.98
2022-12-11T05:16:59.776Z,21.63
2022-12-11T05:17:31.160Z,22.70
2022-12-11T05:18:02.586Z,22.48
2022-12-11T05:18:34.603Z,22.10
2022-12-11T05:19:06.252Z,23.77
2022-12-11T05:19:37.771Z,21.45
2022-12-11T05:20:10.510Z,21.83
2022-12-11T05:20:42.035Z,22.30
2022-12-11T05:21:15.273Z,22.13
2022-12-11T05:21:46.743Z,23.27
2022-12-11T05:22:18.943Z,22.87
2022-12-11T05:22:50.355Z,22.08
2022-12-11T05:23:21.713Z,22.30
2022-12-11T05:23:53.144Z,21.25
2022-12-11T05:24:24.525Z,21.98
2022-12-11T05:24:56.000Z,22.52
2022-12-11T05:25:27.468Z,22.50
2022-12-11T05:26:01.878Z,22.23
2022-12-11T05:26:33.303Z,22.88
2022-12-11T05:27:04.684Z,21.67
2022-12-11T05:27:36.110Z,21.53
2022-12-11T05:28:07.522Z,21.98
2022-12-11T05:28:40.041Z,22.70
2022-12-11T05:29:11.434Z,22.63
2022-12-11T05:29:43.023Z,21.25
2022-12-11T05:30:14.465Z,23.00
2022-12-11T05:30:45.813Z,22.20
2022-12-11T05:31:19.960Z,22.73
2022-12-11T05:31:51.388Z,23.17
2022-12-11T05:32:23.013Z,22.27
2022-12-11T05:32:54.358Z,21.07
2022-12-11T05:33:26.674Z,21.95
2022-12-11T05:33:58.150Z,21.02
2022-12-11T05:34:29.602Z,24.23
2022-12-11T05:35:01.150Z,21.80
2022-12-11T05:35:32.487Z,20.63
2022-12-11T05:36:04.762Z,22.48
2022-12-11T05:36:36.283Z,23.08
2022-12-11T05:37:07.988Z,21.70
2022-12-11T05:37:39.336Z,21.95
2022-12-11T05:38:10.809Z,20.93
2022-12-11T05:38:42.270Z,21.70
2022-12-11T05:39:13.698Z,22.20
2022-12-11T05:39:45.071Z,22.88
2022-12-11T05:40:16.673Z,21.70
2022-12-11T05:41:02.212Z,21.70
2022-12-11T05:41:33.883Z,20.67
2022-12-11T05:42:05.402Z,21.17
2022-12-11T05:42:36.808Z,21.13
2022-12-11T05:43:08.692Z,20.25
2022-12-11T05:43:40.219Z,21.57
2022-12-11T05:44:13.314Z,21.52
2022-12-11T05:44:44.921Z,20.67
2022-12-11T05:45:16.435Z,22.55
2022-12-11T05:45:47.781Z,22.33
2022-12-11T05:46:21.830Z,21.42
2022-12-11T05:46:53.301Z,19.73
2022-12-11T05:47:25.495Z,22.05
2022-12-11T05:47:56.966Z,23.35
2022-12-11T05:48:28.377Z,22.38
2022-12-11T05:49:01.942Z,21.23
2022-12-11T05:49:33.313Z,21.48
2022-12-11T05:50:04.954Z,22.05
2022-12-11T05:50:36.413Z,22.05
2022-12-11T05:51:09.087Z,22.73
2022-12-11T05:51:41.450Z,21.17
2022-12-11T05:52:12.898Z,21.48
2022-12-11T05:52:44.322Z,21.40
2022-12-11T05:53:15.745Z,22.38
2022-12-11T05:53:49.212Z,21.20
2022-12-11T05:54:20.815Z,19.63
2022-12-11T05:54:52.208Z,22.20
2022-12-11T05:55:23.677Z,21.55
2022-12-11T05:55:55.274Z,22.20
2022-12-11T05:56:29.811Z,21.95
2022-12-11T05:57:01.244Z,22.55
2022-12-11T05:57:32.642Z,21.00
2022-12-11T05:58:04.001Z,22.77
2022-12-11T05:58:35.953Z,21.90
2022-12-11T05:59:07.853Z,21.70
2022-12-11T05:59:39.289Z,23.17
2022-12-11T06:00:12.626Z,21.48
2022-12-11T06:00:44.315Z,20.83
2022-12-11T06:01:22.531Z,22.00
2022-12-11T06:01:54.051Z,21.42
2022-12-11T06:02:25.776Z,22.00
2022-12-11T06:02:57.302Z,20.92
2022-12-11T06:03:28.942Z,22.92
2022-12-11T06:04:01.034Z,21.13
2022-12-11T06:04:33.295Z,20.35
2022-12-11T06:05:05.029Z,20.13
2022-12-11T06:05:40.546Z,21.98
2022-12-11T06:06:12.075Z,20.80
2022-12-11T06:06:46.678Z,21.27
2022-12-11T06:07:18.245Z,20.88
2022-12-11T06:07:49.668Z,22.45
2022-12-11T06:08:21.266Z,20.27
2022-12-11T06:08:54.849Z,21.02
2022-12-11T06:09:26.240Z,20.52
2022-12-11T06:09:57.622Z,21.45
2022-12-11T06:10:29.243Z,20.23
2022-12-11T06:11:01.123Z,20.83
2022-12-11T06:11:34.089Z,22.17
2022-12-11T06:12:05.589Z,21.95
2022-12-11T06:12:37.069Z,22.58
2022-12-11T06:13:08.578Z,20.80
2022-12-11T06:13:40.033Z,21.23
2022-12-11T06:14:12.133Z,19.35
2022-12-11T06:14:43.675Z,21.50
2022-12-11T06:15:15.152Z,20.17
2022-12-11T06:15:46.613Z,21.93
2022-12-11T06:16:18.101Z,21.08
2022-12-11T06:16:50.295Z,20.88
2022-12-11T06:17:21.774Z,20.52
2022-12-11T06:17:53.303Z,21.00
2022-12-11T06:18:24.749Z,21.27
2022-12-11T06:18:58.408Z,20.55
2022-12-11T06:19:36.400Z,21.42
2022-12-11T06:20:08.658Z,21.60
2022-12-11T06:20:40.189Z,20.20
2022-12-11T06:21:24.759Z,20.70
2022-12-11T06:21:56.229Z,20.58
2022-12-11T06:22:27.707Z,21.35
2022-12-11T06:22:59.763Z,23.13
2022-12-11T06:23:31.215Z,21.23
2022-12-11T06:24:04.108Z,21.75
2022-12-11T06:24:35.571Z,21.15
2022-12-11T06:25:07.512Z,23.10
2022-12-11T06:25:39.843Z,21.95
2022-12-11T06:26:11.774Z,20.83
2022-12-11T06:26:43.208Z,21.73
2022-12-11T06:27:14.742Z,21.83
2022-12-11T06:27:46.187Z,21.98
2022-12-11T06:28:17.578Z,24.08
2022-12-11T06:28:49.710Z,21.00
2022-12-11T06:29:21.036Z,21.52
2022-12-11T06:29:52.562Z,21.67
2022-12-11T06:30:37.649Z,21.00
2022-12-11T06:31:11.980Z,22.15
2022-12-11T06:31:43.485Z,21.05
2022-12-11T06:32:15.295Z,22.13
2022-12-11T06:32:46.701Z,21.73
2022-12-11T06:33:18.234Z,20.75
2022-12-11T06:33:49.929Z,21.48
2022-12-11T06:34:21.356Z,21.88
2022-12-11T06:34:52.800Z,22.38
2022-12-11T06:35:24.259Z,21.45
2022-12-11T06:35:56.708Z,21.20
2022-12-11T06:36:28.231Z,20.38
2022-12-11T06:36:59.609Z,21.67
2022-12-11T06:37:31.052Z,22.23
2022-12-11T06:38:02.480Z,22.25
2022-12-11T06:38:34.050Z,21.75
2022-12-11T06:39:05.592Z,23.73
2022-12-11T06:39:36.981Z,22.52
2022-12-11T06:40:10.519Z,23.10
2022-12-11T06:40:41.917Z,22.48
2022-12-11T06:41:14.487Z,22.77
2022-12-11T06:41:45.992Z,23.58
2022-12-11T06:42:17.585Z,23.30
2022-12-11T06:42:49.042Z,22.37
2022-12-11T06:43:25.774Z,21.45
2022-12-11T06:43:57.395Z,21.85
2022-12-11T06:44:28.840Z,21.35
2022-12-11T06:45:00.305Z,24.38
2022-12-11T06:45:31.729Z,21.83
2022-12-11T06:46:05.223Z,22.95
2022-12-11T06:46:36.784Z,24.90
2022-12-11T06:47:08.175Z,22.02
2022-12-11T06:47:39.611Z,22.42
2022-12-11T06:48:11.046Z,22.47
2022-12-11T06:48:43.226Z,21.50
2022-12-11T06:49:14.552Z,22.60
2022-12-11T06:49:45.904Z,23.80
2022-12-11T06:50:17.359Z,22.88
2022-12-11T06:50:48.978Z,22.17
2022-12-11T06:51:22.677Z,22.63
2022-12-11T06:51:54.121Z,24.02
2022-12-11T06:52:27.458Z,22.75
2022-12-11T06:52:58.826Z,22.75
2022-12-11T06:53:30.373Z,22.87
2022-12-11T06:54:01.787Z,24.25
2022-12-11T06:54:33.341Z,21.77
2022-12-11T06:55:05.281Z,23.00
2022-12-11T06:55:37.122Z,21.83
2022-12-11T06:56:12.031Z,23.02
2022-12-11T06:56:43.486Z,21.90
2022-12-11T06:57:15.544Z,22.80
2022-12-11T06:57:47.021Z,23.27
2022-12-11T06:58:18.402Z,22.35
2022-12-11T06:58:50.081Z,22.50
2022-12-11T06:59:21.429Z,22.10
2022-12-11T06:59:52.821Z,23.35
2022-12-11T07:00:24.268Z,22.92
2022-12-11T07:00:55.780Z,23.75
2022-12-11T07:01:28.491Z,24.08
2022-12-11T07:02:00.074Z,24.40
2022-12-11T07:02:32.255Z,23.58
2022-12-11T07:03:04.171Z,24.52
2022-12-11T07:03:35.755Z,24.60
2022-12-11T07:04:07.183Z,24.00
2022-12-11T07:04:38.663Z,24.42
2022-12-11T07:05:10.270Z,24.73
2022-12-11T07:05:42.003Z,25.10
2022-12-11T07:06:13.865Z,25.15
2022-12-11T07:06:47.184Z,24.08
2022-12-11T07:07:19.797Z,23.30
2022-12-11T07:07:53.967Z,23.98
2022-12-11T07:08:27.280Z,25.55
2022-12-11T07:08:58.667Z,23.08
2022-12-11T07:09:30.067Z,23.03
2022-12-11T07:10:07.625Z,24.67
2022-12-11T07:10:40.363Z,24.27
2022-12-11T07:11:15.344Z,25.67
2022-12-11T07:11:49.803Z,23.73
2022-12-11T07:12:21.251Z,25.83
2022-12-11T07:12:53.963Z,25.63
2022-12-11T07:13:25.596Z,25.58
2022-12-11T07:14:02.585Z,24.50
2022-12-11T07:14:34.126Z,24.45
2022-12-11T07:15:06.023Z,24.13
2022-12-11T07:15:40.516Z,25.73
2022-12-11T07:16:14.928Z,26.10
2022-12-11T07:16:46.443Z,25.48
2022-12-11T07:17:17.918Z,27.13
2022-12-11T07:17:49.383Z,24.98